sensor_id;sensor_type;location;lat;lon;timestamp;pressure;altitude;pressure_sealevel;temperature;humidity
31239;BME280;17871;31.584;74.450;2023-07-20T00:02:04;97474.50;;;31.20;100.00
31239;BME280;17871;31.584;74.450;2023-07-20T00:04:34;97476.31;;;31.20;100.00
31239;BME280;17871;31.584;74.450;2023-07-20T00:07:04;97477.00;;;31.22;100.00
31239;BME280;17871;31.584;74.450;2023-07-20T00:12:10;97486.75;;;31.21;100.00
31239;BME280;17871;31.584;74.450;2023-07-20T00:14:39;97488.25;;;31.24;100.00
31239;BME280;17871;31.584;74.450;2023-07-20T00:17:08;97500.06;;;31.20;100.00
31239;BME280;17871;31.584;74.450;2023-07-20T00:19:37;97495.91;;;31.17;100.00
31239;BME280;17871;31.584;74.450;2023-07-20T00:22:06;97494.22;;;31.16;100.00
31239;BME280;17871;31.584;74.450;2023-07-20T00:24:34;97500.34;;;31.17;100.00
31239;BME280;17871;31.584;74.450;2023-07-20T00:27:03;97492.31;;;31.18;100.00
31239;BME280;17871;31.584;74.450;2023-07-20T00:29:33;97495.91;;;31.17;100.00
31239;BME280;17871;31.584;74.450;2023-07-20T00:32:02;97489.78;;;31.17;100.00
31239;BME280;17871;31.584;74.450;2023-07-20T00:34:34;97492.03;;;31.21;100.00
31239;BME280;17871;31.584;74.450;2023-07-20T00:37:03;97491.03;;;31.13;100.00
31239;BME280;17871;31.584;74.450;2023-07-20T00:39:31;97491.47;;;31.18;100.00
31239;BME280;17871;31.584;74.450;2023-07-20T00:44:33;97488.25;;;31.24;100.00
31239;BME280;17871;31.584;74.450;2023-07-20T00:47:03;97490.91;;;31.24;100.00
31239;BME280;17871;31.584;74.450;2023-07-20T00:49:32;97491.47;;;31.18;100.00
31239;BME280;17871;31.584;74.450;2023-07-20T00:54:56;97496.59;;;31.29;100.00
31239;BME280;17871;31.584;74.450;2023-07-20T00:57:25;97492.13;;;31.29;100.00
31239;BME280;17871;31.584;74.450;2023-07-20T00:59:56;97497.84;;;31.34;100.00
31239;BME280;17871;31.584;74.450;2023-07-20T01:02:31;97505.34;;;31.39;100.00
31239;BME280;17871;31.584;74.450;2023-07-20T01:05:03;97497.28;;;31.31;100.00
31239;BME280;17871;31.584;74.450;2023-07-20T01:07:40;97499.75;;;31.42;100.00
31239;BME280;17871;31.584;74.450;2023-07-20T01:10:19;97503.41;;;31.41;100.00
31239;BME280;17871;31.584;74.450;2023-07-20T01:12:52;97507.00;;;31.40;100.00
31239;BME280;17871;31.584;74.450;2023-07-20T01:15:33;97509.25;;;31.35;100.00
31239;BME280;17871;31.584;74.450;2023-07-20T01:18:02;97518.53;;;31.29;100.00
31239;BME280;17871;31.584;74.450;2023-07-20T01:20:34;97513.69;;;31.44;100.00
31239;BME280;17871;31.584;74.450;2023-07-20T01:25:56;97510.22;;;31.53;100.00
31239;BME280;17871;31.584;74.450;2023-07-20T01:28:57;97510.09;;;31.55;100.00
31239;BME280;17871;31.584;74.450;2023-07-20T01:31:34;97503.69;;;31.48;100.00
31239;BME280;17871;31.584;74.450;2023-07-20T01:34:08;97503.81;;;31.56;100.00
31239;BME280;17871;31.584;74.450;2023-07-20T01:36:38;97502.59;;;31.50;100.00
31239;BME280;17871;31.584;74.450;2023-07-20T01:39:08;97507.72;;;31.52;100.00
31239;BME280;17871;31.584;74.450;2023-07-20T01:41:37;97505.63;;;31.55;100.00
31239;BME280;17871;31.584;74.450;2023-07-20T01:44:08;97507.00;;;31.59;100.00
31239;BME280;17871;31.584;74.450;2023-07-20T01:46:37;97507.84;;;31.69;100.00
31239;BME280;17871;31.584;74.450;2023-07-20T01:51:45;97520.63;;;31.74;100.00
31239;BME280;17871;31.584;74.450;2023-07-20T01:54:16;97516.16;;;31.65;100.00
31239;BME280;17871;31.584;74.450;2023-07-20T01:56:45;97528.41;;;31.75;100.00
31239;BME280;17871;31.584;74.450;2023-07-20T01:59:14;97526.03;;;31.72;100.00
31239;BME280;17871;31.584;74.450;2023-07-20T02:01:43;97530.47;;;31.81;100.00
31239;BME280;17871;31.584;74.450;2023-07-20T02:04:12;97538.66;;;31.88;100.00
31239;BME280;17871;31.584;74.450;2023-07-20T02:06:42;97542.56;;;31.94;100.00
31239;BME280;17871;31.584;74.450;2023-07-20T02:09:11;97545.75;;;31.97;100.00
31239;BME280;17871;31.584;74.450;2023-07-20T02:11:40;97553.25;;;32.02;100.00
31239;BME280;17871;31.584;74.450;2023-07-20T02:14:09;97557.84;;;32.09;100.00
31239;BME280;17871;31.584;74.450;2023-07-20T02:16:38;97563.97;;;32.00;100.00
31239;BME280;17871;31.584;74.450;2023-07-20T02:19:07;97570.78;;;32.03;100.00
31239;BME280;17871;31.584;74.450;2023-07-20T02:21:36;97566.91;;;32.07;100.00
31239;BME280;17871;31.584;74.450;2023-07-20T02:24:05;97564.94;;;32.09;100.00
31239;BME280;17871;31.584;74.450;2023-07-20T02:26:34;97573.84;;;32.08;100.00
31239;BME280;17871;31.584;74.450;2023-07-20T02:29:03;97570.66;;;32.14;100.00
31239;BME280;17871;31.584;74.450;2023-07-20T02:31:33;97580.09;;;32.16;100.00
31239;BME280;17871;31.584;74.450;2023-07-20T02:34:02;97581.75;;;32.27;100.00
31239;BME280;17871;31.584;74.450;2023-07-20T02:36:31;97584.78;;;32.32;100.00
31239;BME280;17871;31.584;74.450;2023-07-20T02:39:03;97585.06;;;32.29;100.00
31239;BME280;17871;31.584;74.450;2023-07-20T02:41:33;97584.75;;;32.42;100.00
31239;BME280;17871;31.584;74.450;2023-07-20T02:44:02;97582.56;;;32.37;100.00
31239;BME280;17871;31.584;74.450;2023-07-20T02:46:32;97588.53;;;32.39;100.00
31239;BME280;17871;31.584;74.450;2023-07-20T02:49:03;97589.19;;;32.41;100.00
31239;BME280;17871;31.584;74.450;2023-07-20T02:54:33;97599.47;;;32.63;100.00
31239;BME280;17871;31.584;74.450;2023-07-20T02:57:03;97607.91;;;32.76;100.00
31239;BME280;17871;31.584;74.450;2023-07-20T02:59:32;97604.19;;;32.69;100.00
31239;BME280;17871;31.584;74.450;2023-07-20T03:02:06;97608.09;;;32.65;100.00
31239;BME280;17871;31.584;74.450;2023-07-20T03:04:38;97606.03;;;32.59;100.00
31239;BME280;17871;31.584;74.450;2023-07-20T03:07:07;97604.84;;;32.71;100.00
31239;BME280;17871;31.584;74.450;2023-07-20T03:09:36;97605.44;;;32.65;100.00
31239;BME280;17871;31.584;74.450;2023-07-20T03:12:06;97605.56;;;32.73;100.00
31239;BME280;17871;31.584;74.450;2023-07-20T03:14:36;97603.00;;;32.81;100.00
31239;BME280;17871;31.584;74.450;2023-07-20T03:17:04;97600.75;;;32.86;100.00
31239;BME280;17871;31.584;74.450;2023-07-20T03:19:34;97597.16;;;32.78;100.00
31239;BME280;17871;31.584;74.450;2023-07-20T03:22:03;97602.69;;;32.84;100.00
31239;BME280;17871;31.584;74.450;2023-07-20T03:24:32;97606.06;;;32.86;100.00
31239;BME280;17871;31.584;74.450;2023-07-20T03:29:51;97601.72;;;32.85;100.00
31239;BME280;17871;31.584;74.450;2023-07-20T03:32:20;97605.81;;;32.80;100.00
31239;BME280;17871;31.584;74.450;2023-07-20T03:34:48;97603.25;;;32.88;100.00
31239;BME280;17871;31.584;74.450;2023-07-20T03:37:18;97602.88;;;32.83;100.00
31239;BME280;17871;31.584;74.450;2023-07-20T03:39:47;97605.09;;;32.78;100.00
31239;BME280;17871;31.584;74.450;2023-07-20T03:42:18;97601.88;;;32.84;100.00
31239;BME280;17871;31.584;74.450;2023-07-20T03:44:49;97604.75;;;32.90;100.00
31239;BME280;17871;31.584;74.450;2023-07-20T03:47:19;97610.47;;;32.96;100.00
31239;BME280;17871;31.584;74.450;2023-07-20T03:49:48;97614.84;;;33.05;100.00
31239;BME280;17871;31.584;74.450;2023-07-20T03:52:16;97608.47;;;32.98;100.00
31239;BME280;17871;31.584;74.450;2023-07-20T03:54:45;97608.03;;;33.12;100.00
31239;BME280;17871;31.584;74.450;2023-07-20T04:00:15;97610.31;;;33.24;100.00
31239;BME280;17871;31.584;74.450;2023-07-20T04:02:44;97602.59;;;33.31;100.00
31239;BME280;17871;31.584;74.450;2023-07-20T04:05:13;97608.78;;;33.39;100.00
31239;BME280;17871;31.584;74.450;2023-07-20T04:07:42;97605.66;;;33.36;100.00
31239;BME280;17871;31.584;74.450;2023-07-20T04:12:43;97604.34;;;33.40;100.00
31239;BME280;17871;31.584;74.450;2023-07-20T04:15:14;97603.44;;;33.49;100.00
31239;BME280;17871;31.584;74.450;2023-07-20T04:17:44;97604.25;;;33.50;99.96
31239;BME280;17871;31.584;74.450;2023-07-20T04:20:13;97621.22;;;33.57;98.27
31239;BME280;17871;31.584;74.450;2023-07-20T04:22:42;97611.16;;;33.60;98.12
31239;BME280;17871;31.584;74.450;2023-07-20T04:25:14;97606.03;;;33.76;99.61
31239;BME280;17871;31.584;74.450;2023-07-20T04:27:43;97611.31;;;33.76;97.29
31239;BME280;17871;31.584;74.450;2023-07-20T04:30:13;97613.97;;;33.76;96.80
31239;BME280;17871;31.584;74.450;2023-07-20T04:32:43;97614.38;;;33.81;96.99
31239;BME280;17871;31.584;74.450;2023-07-20T04:35:48;97606.03;;;34.12;97.71
31239;BME280;17871;31.584;74.450;2023-07-20T04:38:21;97606.22;;;34.01;96.80
31239;BME280;17871;31.584;74.450;2023-07-20T04:41:07;97601.81;;;34.09;98.76
31239;BME280;17871;31.584;74.450;2023-07-20T04:46:26;97597.75;;;33.79;97.37
31239;BME280;17871;31.584;74.450;2023-07-20T04:49:03;97602.44;;;34.03;98.76
31239;BME280;17871;31.584;74.450;2023-07-20T04:51:38;97599.16;;;34.09;98.75
31239;BME280;17871;31.584;74.450;2023-07-20T04:54:07;97600.84;;;33.92;97.71
31239;BME280;17871;31.584;74.450;2023-07-20T04:56:37;97600.31;;;33.89;98.38
31239;BME280;17871;31.584;74.450;2023-07-20T04:59:09;97597.91;;;34.13;100.00
31239;BME280;17871;31.584;74.450;2023-07-20T05:01:48;97592.75;;;34.12;100.00
31239;BME280;17871;31.584;74.450;2023-07-20T05:04:17;97595.66;;;34.09;96.64
31239;BME280;17871;31.584;74.450;2023-07-20T05:06:49;97585.22;;;34.07;98.95
31239;BME280;17871;31.584;74.450;2023-07-20T05:09:21;97592.75;;;33.94;98.50
31239;BME280;17871;31.584;74.450;2023-07-20T05:12:45;97589.66;;;33.99;96.49
31239;BME280;17871;31.584;74.450;2023-07-20T05:15:17;97586.34;;;34.22;97.36
31239;BME280;17871;31.584;74.450;2023-07-20T05:17:56;97586.69;;;34.02;97.33
31239;BME280;17871;31.584;74.450;2023-07-20T05:20:48;97585.38;;;34.06;95.62
31239;BME280;17871;31.584;74.450;2023-07-20T05:23:19;97581.56;;;34.26;97.81
31239;BME280;17871;31.584;74.450;2023-07-20T05:25:58;97571.31;;;34.31;97.51
31239;BME280;17871;31.584;74.450;2023-07-20T05:28:29;97574.00;;;34.39;96.89
31239;BME280;17871;31.584;74.450;2023-07-20T05:31:19;97574.88;;;34.48;95.95
31239;BME280;17871;31.584;74.450;2023-07-20T05:37:23;97559.97;;;34.80;93.23
31239;BME280;17871;31.584;74.450;2023-07-20T05:39:58;97569.69;;;34.72;93.97
31239;BME280;17871;31.584;74.450;2023-07-20T05:42:51;97568.31;;;35.02;93.56
31239;BME280;17871;31.584;74.450;2023-07-20T05:45:24;97564.41;;;35.22;92.71
31239;BME280;17871;31.584;74.450;2023-07-20T05:48:18;97569.63;;;35.64;89.79
31239;BME280;17871;31.584;74.450;2023-07-20T05:50:47;97570.78;;;35.77;89.43
31239;BME280;17871;31.584;74.450;2023-07-20T05:53:16;97575.09;;;35.86;88.86
31239;BME280;17871;31.584;74.450;2023-07-20T05:55:52;97567.78;;;36.21;87.58
31239;BME280;17871;31.584;74.450;2023-07-20T05:58:21;97571.25;;;36.29;87.54
31239;BME280;17871;31.584;74.450;2023-07-20T06:00:51;97567.03;;;36.43;87.85
31239;BME280;17871;31.584;74.450;2023-07-20T06:03:19;97561.19;;;36.56;86.29
31239;BME280;17871;31.584;74.450;2023-07-20T06:05:50;97557.09;;;36.37;83.95
31239;BME280;17871;31.584;74.450;2023-07-20T06:08:20;97563.44;;;36.20;82.90
31239;BME280;17871;31.584;74.450;2023-07-20T06:10:52;97546.56;;;36.60;84.96
31239;BME280;17871;31.584;74.450;2023-07-20T06:13:21;97551.31;;;36.72;83.58
31239;BME280;17871;31.584;74.450;2023-07-20T06:15:52;97546.59;;;36.82;84.02
31239;BME280;17871;31.584;74.450;2023-07-20T06:18:24;97540.91;;;37.02;82.52
31239;BME280;17871;31.584;74.450;2023-07-20T06:20:53;97543.56;;;37.02;83.82
31239;BME280;17871;31.584;74.450;2023-07-20T06:23:22;97542.06;;;37.22;82.72
31239;BME280;17871;31.584;74.450;2023-07-20T06:25:51;97542.19;;;37.28;81.09
31239;BME280;17871;31.584;74.450;2023-07-20T06:28:20;97534.41;;;37.27;80.89
31239;BME280;17871;31.584;74.450;2023-07-20T06:30:50;97533.09;;;37.23;79.72
31239;BME280;17871;31.584;74.450;2023-07-20T06:33:19;97533.28;;;37.21;79.38
31239;BME280;17871;31.584;74.450;2023-07-20T06:35:49;97531.72;;;37.27;78.21
31239;BME280;17871;31.584;74.450;2023-07-20T06:38:17;97529.81;;;37.13;80.17
31239;BME280;17871;31.584;74.450;2023-07-20T06:40:50;97529.69;;;37.29;78.88
31239;BME280;17871;31.584;74.450;2023-07-20T06:43:19;97529.78;;;37.21;75.64
31239;BME280;17871;31.584;74.450;2023-07-20T06:45:52;97525.41;;;37.51;77.72
31239;BME280;17871;31.584;74.450;2023-07-20T06:48:22;97522.34;;;37.76;77.84
31239;BME280;17871;31.584;74.450;2023-07-20T06:50:51;97518.19;;;37.97;77.82
31239;BME280;17871;31.584;74.450;2023-07-20T06:53:19;97517.91;;;37.54;76.26
31239;BME280;17871;31.584;74.450;2023-07-20T06:55:48;97516.03;;;37.77;76.79
31239;BME280;17871;31.584;74.450;2023-07-20T06:58:17;97509.28;;;38.19;76.80
31239;BME280;17871;31.584;74.450;2023-07-20T07:00:47;97521.69;;;37.97;72.49
31239;BME280;17871;31.584;74.450;2023-07-20T07:03:17;97513.78;;;37.81;72.09
31239;BME280;17871;31.584;74.450;2023-07-20T08:38:33;97473.38;;;38.36;69.95
31239;BME280;17871;31.584;74.450;2023-07-20T08:41:02;97473.38;;;38.36;69.95
31239;BME280;17871;31.584;74.450;2023-07-20T08:43:33;97473.38;;;38.36;69.95
31239;BME280;17871;31.584;74.450;2023-07-20T08:46:03;97473.38;;;38.36;69.95
31239;BME280;17871;31.584;74.450;2023-07-20T08:48:36;97473.38;;;38.36;69.95
31239;BME280;17871;31.584;74.450;2023-07-20T08:51:07;97395.09;;;38.86;70.30
31239;BME280;17871;31.584;74.450;2023-07-20T08:53:36;97395.09;;;38.86;70.30
31239;BME280;17871;31.584;74.450;2023-07-20T08:56:06;97395.09;;;38.86;70.30
31239;BME280;17871;31.584;74.450;2023-07-20T08:58:36;97395.09;;;38.86;70.30
31239;BME280;17871;31.584;74.450;2023-07-20T09:01:05;97395.09;;;38.86;70.30
31239;BME280;17871;31.584;74.450;2023-07-20T09:03:35;97395.09;;;38.86;70.30
31239;BME280;17871;31.584;74.450;2023-07-20T09:06:08;97395.09;;;38.86;70.30
31239;BME280;17871;31.584;74.450;2023-07-20T09:08:40;97395.09;;;38.86;70.30
31239;BME280;17871;31.584;74.450;2023-07-20T09:11:12;97395.09;;;38.86;70.30
31239;BME280;17871;31.584;74.450;2023-07-20T09:13:43;97395.09;;;38.86;70.30
31239;BME280;17871;31.584;74.450;2023-07-20T09:16:13;97395.09;;;38.86;70.30
31239;BME280;17871;31.584;74.450;2023-07-20T09:18:44;97395.09;;;38.86;70.30
31239;BME280;17871;31.584;74.450;2023-07-20T09:24:00;97395.09;;;38.86;70.30
31239;BME280;17871;31.584;74.450;2023-07-20T09:26:41;97395.09;;;38.86;70.30
31239;BME280;17871;31.584;74.450;2023-07-20T09:29:18;97395.09;;;38.86;70.30
31239;BME280;17871;31.584;74.450;2023-07-20T09:32:03;97395.09;;;38.86;70.30
31239;BME280;17871;31.584;74.450;2023-07-20T09:34:37;97395.09;;;38.86;70.30
31239;BME280;17871;31.584;74.450;2023-07-20T09:37:07;97395.09;;;38.86;70.30
31239;BME280;17871;31.584;74.450;2023-07-20T09:39:44;97395.09;;;38.86;70.30
31239;BME280;17871;31.584;74.450;2023-07-20T09:42:16;97395.09;;;38.86;70.30
31239;BME280;17871;31.584;74.450;2023-07-20T09:44:49;97395.09;;;38.86;70.30
31239;BME280;17871;31.584;74.450;2023-07-20T09:47:23;97395.09;;;38.86;70.30
31239;BME280;17871;31.584;74.450;2023-07-20T09:49:59;97395.09;;;38.86;70.30
31239;BME280;17871;31.584;74.450;2023-07-20T09:52:31;97395.09;;;38.86;70.30
31239;BME280;17871;31.584;74.450;2023-07-20T09:55:03;97395.09;;;38.86;70.30
31239;BME280;17871;31.584;74.450;2023-07-20T09:57:33;97395.09;;;38.86;70.30
31239;BME280;17871;31.584;74.450;2023-07-20T10:00:05;97395.09;;;38.86;70.30
31239;BME280;17871;31.584;74.450;2023-07-20T10:02:45;97395.09;;;38.86;70.30
31239;BME280;17871;31.584;74.450;2023-07-20T10:05:15;97395.09;;;38.86;70.30
31239;BME280;17871;31.584;74.450;2023-07-20T10:07:50;97395.09;;;38.86;70.30
31239;BME280;17871;31.584;74.450;2023-07-20T10:10:41;97395.09;;;38.86;70.30
31239;BME280;17871;31.584;74.450;2023-07-20T10:13:21;97395.09;;;38.86;70.30
31239;BME280;17871;31.584;74.450;2023-07-20T10:16:00;97395.09;;;38.86;70.30
31239;BME280;17871;31.584;74.450;2023-07-20T10:18:55;97395.09;;;38.86;70.30
31239;BME280;17871;31.584;74.450;2023-07-20T10:21:30;97395.09;;;38.86;70.30
31239;BME280;17871;31.584;74.450;2023-07-20T10:24:05;97395.09;;;38.86;70.30
31239;BME280;17871;31.584;74.450;2023-07-20T10:26:34;97395.09;;;38.86;70.30
31239;BME280;17871;31.584;74.450;2023-07-20T10:29:07;97395.09;;;38.86;70.30
31239;BME280;17871;31.584;74.450;2023-07-20T10:31:37;97395.09;;;38.86;70.30
31239;BME280;17871;31.584;74.450;2023-07-20T10:34:07;97395.09;;;38.86;70.30
31239;BME280;17871;31.584;74.450;2023-07-20T10:36:44;97395.09;;;38.86;70.30
31239;BME280;17871;31.584;74.450;2023-07-20T10:39:28;97395.09;;;38.86;70.30
31239;BME280;17871;31.584;74.450;2023-07-20T10:42:06;97395.09;;;38.86;70.30
31239;BME280;17871;31.584;74.450;2023-07-20T10:44:40;97395.09;;;38.86;70.30
31239;BME280;17871;31.584;74.450;2023-07-20T10:47:11;97395.09;;;38.86;70.30
31239;BME280;17871;31.584;74.450;2023-07-20T10:50:00;97395.09;;;38.86;70.30
31239;BME280;17871;31.584;74.450;2023-07-20T10:52:41;97395.09;;;38.86;70.30
31239;BME280;17871;31.584;74.450;2023-07-20T10:55:17;97395.09;;;38.86;70.30
31239;BME280;17871;31.584;74.450;2023-07-20T10:58:06;97395.09;;;38.86;70.30
31239;BME280;17871;31.584;74.450;2023-07-20T11:00:38;97395.09;;;38.86;70.30
31239;BME280;17871;31.584;74.450;2023-07-20T11:03:37;97395.09;;;38.86;70.30
31239;BME280;17871;31.584;74.450;2023-07-20T11:09:11;97395.09;;;38.86;70.30
31239;BME280;17871;31.584;74.450;2023-07-20T11:11:48;97395.09;;;38.86;70.30
31239;BME280;17871;31.584;74.450;2023-07-20T11:14:25;97395.09;;;38.86;70.30
31239;BME280;17871;31.584;74.450;2023-07-20T11:17:11;97395.09;;;38.86;70.30
31239;BME280;17871;31.584;74.450;2023-07-20T11:19:42;97395.09;;;38.86;70.30
31239;BME280;17871;31.584;74.450;2023-07-20T11:22:16;97395.09;;;38.86;70.30
31239;BME280;17871;31.584;74.450;2023-07-20T11:24:46;97395.09;;;38.86;70.30
31239;BME280;17871;31.584;74.450;2023-07-20T11:27:17;97395.09;;;38.86;70.30
31239;BME280;17871;31.584;74.450;2023-07-20T11:29:51;97395.09;;;38.86;70.30
31239;BME280;17871;31.584;74.450;2023-07-20T11:32:21;97395.09;;;38.86;70.30
31239;BME280;17871;31.584;74.450;2023-07-20T11:34:50;97395.09;;;38.86;70.30
31239;BME280;17871;31.584;74.450;2023-07-20T11:37:21;97395.09;;;38.86;70.30
31239;BME280;17871;31.584;74.450;2023-07-20T11:39:56;97395.09;;;38.86;70.30
31239;BME280;17871;31.584;74.450;2023-07-20T11:42:26;97395.09;;;38.86;70.30
31239;BME280;17871;31.584;74.450;2023-07-20T11:44:58;97395.09;;;38.86;70.30
31239;BME280;17871;31.584;74.450;2023-07-20T11:47:30;97395.09;;;38.86;70.30
31239;BME280;17871;31.584;74.450;2023-07-20T11:50:03;97395.09;;;38.86;70.30
31239;BME280;17871;31.584;74.450;2023-07-20T11:52:35;97395.09;;;38.86;70.30
31239;BME280;17871;31.584;74.450;2023-07-20T11:55:06;97395.09;;;38.86;70.30
31239;BME280;17871;31.584;74.450;2023-07-20T11:57:35;97395.09;;;38.86;70.30
31239;BME280;17871;31.584;74.450;2023-07-20T12:00:05;97395.09;;;38.86;70.30
31239;BME280;17871;31.584;74.450;2023-07-20T12:02:39;97395.09;;;38.86;70.30
31239;BME280;17871;31.584;74.450;2023-07-20T12:05:08;97395.09;;;38.86;70.30
31239;BME280;17871;31.584;74.450;2023-07-20T12:07:38;97176.41;;;35.38;83.50
31239;BME280;17871;31.584;74.450;2023-07-20T12:10:11;97176.41;;;35.38;83.50
31239;BME280;17871;31.584;74.450;2023-07-20T12:12:43;97176.41;;;35.38;83.50
31239;BME280;17871;31.584;74.450;2023-07-20T12:15:21;97176.41;;;35.38;83.50
31239;BME280;17871;31.584;74.450;2023-07-20T12:17:52;97176.41;;;35.38;83.50
31239;BME280;17871;31.584;74.450;2023-07-20T12:20:39;97176.41;;;35.38;83.50
31239;BME280;17871;31.584;74.450;2023-07-20T12:23:10;97176.41;;;35.38;83.50
31239;BME280;17871;31.584;74.450;2023-07-20T12:25:41;97176.41;;;35.38;83.50
31239;BME280;17871;31.584;74.450;2023-07-20T12:28:17;97176.41;;;35.38;83.50
31239;BME280;17871;31.584;74.450;2023-07-20T12:30:47;97176.41;;;35.38;83.50
31239;BME280;17871;31.584;74.450;2023-07-20T12:33:26;97176.41;;;35.38;83.50
31239;BME280;17871;31.584;74.450;2023-07-20T12:35:55;97176.41;;;35.38;83.50
31239;BME280;17871;31.584;74.450;2023-07-20T12:38:27;97176.41;;;35.38;83.50
31239;BME280;17871;31.584;74.450;2023-07-20T12:40:57;97211.16;;;35.36;86.64
31239;BME280;17871;31.584;74.450;2023-07-20T12:43:28;97211.16;;;35.36;86.64
31239;BME280;17871;31.584;74.450;2023-07-20T12:45:57;97211.16;;;35.36;86.64
31239;BME280;17871;31.584;74.450;2023-07-20T12:48:27;97226.03;;;35.46;87.23
31239;BME280;17871;31.584;74.450;2023-07-20T12:50:55;97226.03;;;35.46;87.23
31239;BME280;17871;31.584;74.450;2023-07-20T12:53:24;97224.88;;;35.48;86.75
31239;BME280;17871;31.584;74.450;2023-07-20T12:55:53;97224.88;;;35.48;86.75
31239;BME280;17871;31.584;74.450;2023-07-20T12:58:22;97224.88;;;35.48;86.75
31239;BME280;17871;31.584;74.450;2023-07-20T13:00:54;97224.88;;;35.48;86.75
31239;BME280;17871;31.584;74.450;2023-07-20T13:03:28;97224.88;;;35.48;86.75
31239;BME280;17871;31.584;74.450;2023-07-20T13:06:00;97224.88;;;35.48;86.75
31239;BME280;17871;31.584;74.450;2023-07-20T13:08:33;97247.78;;;35.49;87.40
31239;BME280;17871;31.584;74.450;2023-07-20T13:11:04;97247.78;;;35.49;87.40
31239;BME280;17871;31.584;74.450;2023-07-20T13:13:35;97247.78;;;35.49;87.40
31239;BME280;17871;31.584;74.450;2023-07-20T13:16:05;97261.44;;;35.46;87.95
31239;BME280;17871;31.584;74.450;2023-07-20T13:18:36;97261.44;;;35.46;87.95
31239;BME280;17871;31.584;74.450;2023-07-20T13:21:07;97261.44;;;35.46;87.95
31239;BME280;17871;31.584;74.450;2023-07-20T13:23:40;97261.44;;;35.46;87.95
31239;BME280;17871;31.584;74.450;2023-07-20T13:26:11;97261.44;;;35.46;87.95
31239;BME280;17871;31.584;74.450;2023-07-20T13:28:41;97261.44;;;35.46;87.95
31239;BME280;17871;31.584;74.450;2023-07-20T13:31:12;97261.44;;;35.46;87.95
31239;BME280;17871;31.584;74.450;2023-07-20T13:33:43;97261.44;;;35.46;87.95
31239;BME280;17871;31.584;74.450;2023-07-20T13:36:24;97261.44;;;35.46;87.95
31239;BME280;17871;31.584;74.450;2023-07-20T13:38:57;97261.44;;;35.46;87.95
31239;BME280;17871;31.584;74.450;2023-07-20T13:41:28;97272.31;;;35.12;91.42
31239;BME280;17871;31.584;74.450;2023-07-20T13:43:59;97272.31;;;35.12;91.42
31239;BME280;17871;31.584;74.450;2023-07-20T13:46:34;97272.31;;;35.12;91.42
31239;BME280;17871;31.584;74.450;2023-07-20T13:49:07;97272.31;;;35.12;91.42
31239;BME280;17871;31.584;74.450;2023-07-20T13:51:50;97277.63;;;35.04;91.71
31239;BME280;17871;31.584;74.450;2023-07-20T13:54:26;97277.63;;;35.04;91.71
31239;BME280;17871;31.584;74.450;2023-07-20T13:56:57;97288.75;;;35.00;93.69
31239;BME280;17871;31.584;74.450;2023-07-20T13:59:27;97288.75;;;35.00;93.69
31239;BME280;17871;31.584;74.450;2023-07-20T14:01:57;97296.88;;;34.98;95.25
31239;BME280;17871;31.584;74.450;2023-07-20T14:04:30;97296.88;;;34.98;95.25
31239;BME280;17871;31.584;74.450;2023-07-20T14:07:01;97308.72;;;34.87;93.95
31239;BME280;17871;31.584;74.450;2023-07-20T14:09:32;97308.03;;;34.85;94.14
31239;BME280;17871;31.584;74.450;2023-07-20T14:12:02;97308.69;;;34.79;95.61
31239;BME280;17871;31.584;74.450;2023-07-20T14:14:36;97307.03;;;34.78;94.38
31239;BME280;17871;31.584;74.450;2023-07-20T14:17:07;97312.34;;;34.78;94.99
31239;BME280;17871;31.584;74.450;2023-07-20T14:19:38;97322.47;;;34.75;95.62
31239;BME280;17871;31.584;74.450;2023-07-20T14:22:11;97320.66;;;34.67;93.92
31239;BME280;17871;31.584;74.450;2023-07-20T14:24:41;97330.25;;;34.60;91.78
31239;BME280;17871;31.584;74.450;2023-07-20T14:27:11;97332.91;;;34.60;92.70
31239;BME280;17871;31.584;74.450;2023-07-20T14:29:42;97334.53;;;34.53;91.37
31239;BME280;17871;31.584;74.450;2023-07-20T14:32:13;97334.38;;;34.47;91.72
31239;BME280;17871;31.584;74.450;2023-07-20T14:34:44;97342.47;;;34.45;91.93
31239;BME280;17871;31.584;74.450;2023-07-20T14:37:15;97338.84;;;34.46;92.97
31239;BME280;17871;31.584;74.450;2023-07-20T14:39:46;97341.81;;;34.43;91.09
31239;BME280;17871;31.584;74.450;2023-07-20T14:42:18;97344.47;;;34.43;92.11
31239;BME280;17871;31.584;74.450;2023-07-20T14:44:48;97341.13;;;34.33;89.21
31239;BME280;17871;31.584;74.450;2023-07-20T14:47:20;97341.66;;;34.36;90.23
31239;BME280;17871;31.584;74.450;2023-07-20T14:49:51;97343.66;;;34.34;89.95
31239;BME280;17871;31.584;74.450;2023-07-20T14:52:21;97343.66;;;34.34;89.95
31239;BME280;17871;31.584;74.450;2023-07-20T14:54:56;97347.09;;;34.35;89.30
31239;BME280;17871;31.584;74.450;2023-07-20T14:57:27;97347.09;;;34.35;89.30
31239;BME280;17871;31.584;74.450;2023-07-20T14:59:58;97344.44;;;34.27;90.64
31239;BME280;17871;31.584;74.450;2023-07-20T15:02:28;97345.28;;;34.27;89.83
31239;BME280;17871;31.584;74.450;2023-07-20T15:04:58;97345.47;;;34.34;89.59
31239;BME280;17871;31.584;74.450;2023-07-20T15:07:28;97339.47;;;34.32;91.71
31239;BME280;17871;31.584;74.450;2023-07-20T15:09:59;97337.97;;;34.29;92.18
31239;BME280;17871;31.584;74.450;2023-07-20T15:12:31;97344.78;;;34.32;92.58
31239;BME280;17871;31.584;74.450;2023-07-20T15:15:07;97344.97;;;34.30;91.49
31239;BME280;17871;31.584;74.450;2023-07-20T15:17:40;97343.09;;;34.23;92.36
31239;BME280;17871;31.584;74.450;2023-07-20T15:20:11;97357.06;;;34.33;91.77
31239;BME280;17871;31.584;74.450;2023-07-20T15:22:42;97359.84;;;34.23;93.83
31239;BME280;17871;31.584;74.450;2023-07-20T15:25:16;97359.84;;;34.23;93.83